sensor_id;sensor_type;location;lat;lon;timestamp;P1;durP1;ratioP1;P2;durP2;ratioP2
691;SDS011;70475;50.084;8.576;2024-03-06T00:01:16;3.27;;;2.20;;
691;SDS011;70475;50.084;8.576;2024-03-06T00:03:45;3.80;;;2.90;;
691;SDS011;70475;50.084;8.576;2024-03-06T00:06:12;4.13;;;3.00;;
691;SDS011;70475;50.084;8.576;2024-03-06T00:08:40;5.50;;;3.50;;
691;SDS011;70475;50.084;8.576;2024-03-06T00:11:07;7.30;;;3.27;;
691;SDS011;70475;50.084;8.576;2024-03-06T00:13:35;4.77;;;2.77;;
691;SDS011;70475;50.084;8.576;2024-03-06T00:16:03;3.90;;;3.17;;
691;SDS011;70475;50.084;8.576;2024-03-06T00:18:31;4.57;;;3.30;;
691;SDS011;70475;50.084;8.576;2024-03-06T00:20:59;3.53;;;2.70;;
691;SDS011;70475;50.084;8.576;2024-03-06T00:23:27;4.20;;;3.00;;
691;SDS011;70475;50.084;8.576;2024-03-06T00:25:54;5.40;;;3.17;;
691;SDS011;70475;50.084;8.576;2024-03-06T00:28:22;2.53;;;2.33;;
691;SDS011;70475;50.084;8.576;2024-03-06T00:30:50;4.33;;;3.90;;
691;SDS011;70475;50.084;8.576;2024-03-06T00:33:17;2.83;;;2.13;;
691;SDS011;70475;50.084;8.576;2024-03-06T00:35:45;4.63;;;3.13;;
691;SDS011;70475;50.084;8.576;2024-03-06T00:38:15;3.97;;;2.90;;
691;SDS011;70475;50.084;8.576;2024-03-06T00:40:43;4.03;;;2.40;;
691;SDS011;70475;50.084;8.576;2024-03-06T00:43:10;3.30;;;2.83;;
691;SDS011;70475;50.084;8.576;2024-03-06T00:45:38;3.20;;;2.70;;
691;SDS011;70475;50.084;8.576;2024-03-06T00:48:06;4.50;;;2.47;;
691;SDS011;70475;50.084;8.576;2024-03-06T00:50:34;4.03;;;1.97;;
691;SDS011;70475;50.084;8.576;2024-03-06T00:53:01;5.50;;;2.17;;
691;SDS011;70475;50.084;8.576;2024-03-06T00:55:31;4.57;;;3.23;;
691;SDS011;70475;50.084;8.576;2024-03-06T00:57:59;4.43;;;3.30;;
691;SDS011;70475;50.084;8.576;2024-03-06T01:00:27;2.60;;;2.17;;
691;SDS011;70475;50.084;8.576;2024-03-06T01:02:54;3.20;;;2.43;;
691;SDS011;70475;50.084;8.576;2024-03-06T01:05:22;4.23;;;3.80;;
691;SDS011;70475;50.084;8.576;2024-03-06T01:07:50;4.03;;;3.23;;
691;SDS011;70475;50.084;8.576;2024-03-06T01:10:17;3.90;;;2.97;;
691;SDS011;70475;50.084;8.576;2024-03-06T01:12:46;9.70;;;3.23;;
691;SDS011;70475;50.084;8.576;2024-03-06T01:15:14;4.63;;;2.87;;
691;SDS011;70475;50.084;8.576;2024-03-06T01:17:41;4.30;;;3.87;;
691;SDS011;70475;50.084;8.576;2024-03-06T01:20:09;3.93;;;3.13;;
691;SDS011;70475;50.084;8.576;2024-03-06T01:22:37;2.50;;;2.30;;
691;SDS011;70475;50.084;8.576;2024-03-06T01:25:05;3.57;;;2.23;;
691;SDS011;70475;50.084;8.576;2024-03-06T01:27:33;8.07;;;4.13;;
691;SDS011;70475;50.084;8.576;2024-03-06T01:30:02;4.57;;;3.17;;
691;SDS011;70475;50.084;8.576;2024-03-06T01:32:30;2.10;;;1.70;;
691;SDS011;70475;50.084;8.576;2024-03-06T01:34:59;2.43;;;2.23;;
691;SDS011;70475;50.084;8.576;2024-03-06T01:37:27;3.93;;;2.80;;
691;SDS011;70475;50.084;8.576;2024-03-06T01:39:54;2.70;;;2.50;;
691;SDS011;70475;50.084;8.576;2024-03-06T01:42:22;2.87;;;2.60;;
691;SDS011;70475;50.084;8.576;2024-03-06T01:44:50;7.13;;;3.30;;
691;SDS011;70475;50.084;8.576;2024-03-06T01:47:19;4.20;;;2.83;;
691;SDS011;70475;50.084;8.576;2024-03-06T01:49:46;5.87;;;4.63;;
691;SDS011;70475;50.084;8.576;2024-03-06T01:52:15;4.50;;;3.50;;
691;SDS011;70475;50.084;8.576;2024-03-06T01:54:45;5.33;;;3.43;;
691;SDS011;70475;50.084;8.576;2024-03-06T01:57:15;12.93;;;3.57;;
691;SDS011;70475;50.084;8.576;2024-03-06T01:59:44;5.60;;;3.27;;
691;SDS011;70475;50.084;8.576;2024-03-06T02:02:12;4.30;;;3.10;;
691;SDS011;70475;50.084;8.576;2024-03-06T02:04:41;4.47;;;3.57;;
691;SDS011;70475;50.084;8.576;2024-03-06T02:07:09;6.57;;;3.70;;
691;SDS011;70475;50.084;8.576;2024-03-06T02:09:38;3.80;;;2.73;;
691;SDS011;70475;50.084;8.576;2024-03-06T02:12:06;4.87;;;3.10;;
691;SDS011;70475;50.084;8.576;2024-03-06T02:14:34;2.43;;;1.80;;
691;SDS011;70475;50.084;8.576;2024-03-06T02:17:02;5.50;;;3.00;;
691;SDS011;70475;50.084;8.576;2024-03-06T02:19:37;3.20;;;2.87;;
691;SDS011;70475;50.084;8.576;2024-03-06T02:22:07;9.13;;;3.20;;
691;SDS011;70475;50.084;8.576;2024-03-06T02:24:35;2.43;;;2.23;;
691;SDS011;70475;50.084;8.576;2024-03-06T02:27:03;3.43;;;3.10;;
691;SDS011;70475;50.084;8.576;2024-03-06T02:29:31;5.13;;;2.90;;
691;SDS011;70475;50.084;8.576;2024-03-06T02:31:59;2.07;;;1.80;;
691;SDS011;70475;50.084;8.576;2024-03-06T02:34:28;3.20;;;2.43;;
691;SDS011;70475;50.084;8.576;2024-03-06T02:36:56;3.70;;;2.97;;
691;SDS011;70475;50.084;8.576;2024-03-06T02:39:25;3.33;;;2.60;;
691;SDS011;70475;50.084;8.576;2024-03-06T02:41:53;2.70;;;2.50;;
691;SDS011;70475;50.084;8.576;2024-03-06T02:44:20;4.63;;;3.20;;
691;SDS011;70475;50.084;8.576;2024-03-06T02:46:48;3.83;;;3.43;;
691;SDS011;70475;50.084;8.576;2024-03-06T02:49:16;3.63;;;3.30;;
691;SDS011;70475;50.084;8.576;2024-03-06T02:51:44;2.57;;;2.37;;
691;SDS011;70475;50.084;8.576;2024-03-06T02:54:12;4.33;;;3.77;;
691;SDS011;70475;50.084;8.576;2024-03-06T02:56:41;2.90;;;2.53;;
691;SDS011;70475;50.084;8.576;2024-03-06T02:59:09;4.83;;;3.80;;
691;SDS011;70475;50.084;8.576;2024-03-06T03:01:36;3.80;;;2.90;;
691;SDS011;70475;50.084;8.576;2024-03-06T03:04:04;5.70;;;3.93;;
691;SDS011;70475;50.084;8.576;2024-03-06T03:06:32;2.90;;;2.47;;
691;SDS011;70475;50.084;8.576;2024-03-06T03:09:00;4.37;;;3.40;;
691;SDS011;70475;50.084;8.576;2024-03-06T03:11:29;4.57;;;3.77;;
691;SDS011;70475;50.084;8.576;2024-03-06T03:13:59;4.13;;;3.20;;
691;SDS011;70475;50.084;8.576;2024-03-06T03:16:27;3.87;;;3.03;;
691;SDS011;70475;50.084;8.576;2024-03-06T03:18:54;3.90;;;2.50;;
691;SDS011;70475;50.084;8.576;2024-03-06T03:21:22;4.43;;;3.13;;
691;SDS011;70475;50.084;8.576;2024-03-06T03:23:49;5.90;;;3.17;;
691;SDS011;70475;50.084;8.576;2024-03-06T03:26:17;3.97;;;2.60;;
691;SDS011;70475;50.084;8.576;2024-03-06T03:28:44;3.70;;;2.23;;
691;SDS011;70475;50.084;8.576;2024-03-06T03:31:13;3.83;;;2.70;;
691;SDS011;70475;50.084;8.576;2024-03-06T03:33:41;3.10;;;2.60;;
691;SDS011;70475;50.084;8.576;2024-03-06T03:36:09;4.50;;;3.40;;
691;SDS011;70475;50.084;8.576;2024-03-06T03:38:37;4.50;;;3.50;;
691;SDS011;70475;50.084;8.576;2024-03-06T03:41:07;3.67;;;2.60;;
691;SDS011;70475;50.084;8.576;2024-03-06T03:43:36;7.33;;;3.00;;
691;SDS011;70475;50.084;8.576;2024-03-06T03:46:03;6.80;;;4.40;;
691;SDS011;70475;50.084;8.576;2024-03-06T03:48:34;3.53;;;2.80;;
691;SDS011;70475;50.084;8.576;2024-03-06T03:51:03;5.50;;;2.97;;
691;SDS011;70475;50.084;8.576;2024-03-06T03:53:31;3.90;;;3.30;;
691;SDS011;70475;50.084;8.576;2024-03-06T03:55:59;6.77;;;4.27;;
691;SDS011;70475;50.084;8.576;2024-03-06T03:58:27;2.70;;;1.90;;
691;SDS011;70475;50.084;8.576;2024-03-06T04:00:54;4.20;;;3.47;;
691;SDS011;70475;50.084;8.576;2024-03-06T04:03:22;7.20;;;3.03;;
691;SDS011;70475;50.084;8.576;2024-03-06T04:05:52;4.30;;;3.13;;
691;SDS011;70475;50.084;8.576;2024-03-06T04:08:19;4.17;;;3.07;;
691;SDS011;70475;50.084;8.576;2024-03-06T04:10:47;3.20;;;2.33;;
691;SDS011;70475;50.084;8.576;2024-03-06T04:13:15;7.97;;;3.60;;
691;SDS011;70475;50.084;8.576;2024-03-06T04:15:43;4.30;;;3.90;;
691;SDS011;70475;50.084;8.576;2024-03-06T04:18:11;2.50;;;2.23;;
691;SDS011;70475;50.084;8.576;2024-03-06T04:20:39;3.17;;;2.93;;
691;SDS011;70475;50.084;8.576;2024-03-06T04:23:07;4.87;;;3.73;;
691;SDS011;70475;50.084;8.576;2024-03-06T04:25:35;3.13;;;2.83;;
691;SDS011;70475;50.084;8.576;2024-03-06T04:28:03;5.67;;;4.30;;
691;SDS011;70475;50.084;8.576;2024-03-06T04:30:33;3.33;;;2.80;;
691;SDS011;70475;50.084;8.576;2024-03-06T04:33:01;4.00;;;3.70;;
691;SDS011;70475;50.084;8.576;2024-03-06T04:35:28;5.50;;;3.63;;
691;SDS011;70475;50.084;8.576;2024-03-06T04:37:56;3.97;;;3.03;;
691;SDS011;70475;50.084;8.576;2024-03-06T04:40:25;4.27;;;2.47;;
691;SDS011;70475;50.084;8.576;2024-03-06T04:42:52;3.17;;;2.50;;
691;SDS011;70475;50.084;8.576;2024-03-06T04:45:20;7.87;;;2.90;;
691;SDS011;70475;50.084;8.576;2024-03-06T04:47:47;6.30;;;4.53;;
691;SDS011;70475;50.084;8.576;2024-03-06T04:50:15;5.23;;;4.40;;
691;SDS011;70475;50.084;8.576;2024-03-06T04:52:43;5.03;;;4.00;;
691;SDS011;70475;50.084;8.576;2024-03-06T04:55:11;3.80;;;3.20;;
691;SDS011;70475;50.084;8.576;2024-03-06T04:57:43;4.00;;;1.80;;
691;SDS011;70475;50.084;8.576;2024-03-06T05:00:11;4.77;;;3.80;;
691;SDS011;70475;50.084;8.576;2024-03-06T05:02:39;4.00;;;2.90;;
691;SDS011;70475;50.084;8.576;2024-03-06T05:05:25;5.10;;;4.30;;
691;SDS011;70475;50.084;8.576;2024-03-06T05:08:11;5.40;;;4.90;;
691;SDS011;70475;50.084;8.576;2024-03-06T05:10:56;4.63;;;4.20;;
691;SDS011;70475;50.084;8.576;2024-03-06T05:13:47;9.50;;;5.43;;
691;SDS011;70475;50.084;8.576;2024-03-06T05:16:33;5.30;;;4.80;;
691;SDS011;70475;50.084;8.576;2024-03-06T05:19:18;7.43;;;4.97;;
691;SDS011;70475;50.084;8.576;2024-03-06T05:22:04;6.83;;;3.57;;
691;SDS011;70475;50.084;8.576;2024-03-06T05:24:50;4.33;;;3.93;;
691;SDS011;70475;50.084;8.576;2024-03-06T05:27:35;5.70;;;3.57;;
691;SDS011;70475;50.084;8.576;2024-03-06T05:30:21;7.10;;;4.33;;
691;SDS011;70475;50.084;8.576;2024-03-06T05:33:07;4.90;;;4.40;;
691;SDS011;70475;50.084;8.576;2024-03-06T05:35:54;5.60;;;3.70;;
691;SDS011;70475;50.084;8.576;2024-03-06T05:38:40;5.80;;;4.57;;
691;SDS011;70475;50.084;8.576;2024-03-06T05:41:25;5.90;;;4.30;;
691;SDS011;70475;50.084;8.576;2024-03-06T05:44:10;9.10;;;4.30;;
691;SDS011;70475;50.084;8.576;2024-03-06T05:46:57;11.47;;;4.10;;
691;SDS011;70475;50.084;8.576;2024-03-06T05:49:42;4.63;;;4.00;;
691;SDS011;70475;50.084;8.576;2024-03-06T05:52:27;5.30;;;3.97;;
691;SDS011;70475;50.084;8.576;2024-03-06T05:55:12;5.10;;;4.63;;
691;SDS011;70475;50.084;8.576;2024-03-06T05:57:58;6.80;;;5.10;;
691;SDS011;70475;50.084;8.576;2024-03-06T06:00:37;3.57;;;2.90;;
691;SDS011;70475;50.084;8.576;2024-03-06T06:03:07;7.20;;;5.27;;
691;SDS011;70475;50.084;8.576;2024-03-06T06:05:36;10.90;;;5.93;;
691;SDS011;70475;50.084;8.576;2024-03-06T06:08:05;5.60;;;4.47;;
691;SDS011;70475;50.084;8.576;2024-03-06T06:10:33;7.77;;;3.50;;
691;SDS011;70475;50.084;8.576;2024-03-06T06:13:00;7.77;;;5.50;;
691;SDS011;70475;50.084;8.576;2024-03-06T06:15:31;6.50;;;5.40;;
691;SDS011;70475;50.084;8.576;2024-03-06T06:17:58;7.80;;;5.33;;
691;SDS011;70475;50.084;8.576;2024-03-06T06:20:27;6.60;;;4.87;;
691;SDS011;70475;50.084;8.576;2024-03-06T06:22:55;6.97;;;5.03;;
691;SDS011;70475;50.084;8.576;2024-03-06T06:25:23;9.00;;;5.10;;
691;SDS011;70475;50.084;8.576;2024-03-06T06:28:06;5.57;;;3.90;;
691;SDS011;70475;50.084;8.576;2024-03-06T06:30:37;6.77;;;4.50;;
691;SDS011;70475;50.084;8.576;2024-03-06T06:33:05;7.60;;;4.60;;
691;SDS011;70475;50.084;8.576;2024-03-06T06:35:34;5.40;;;4.70;;
691;SDS011;70475;50.084;8.576;2024-03-06T06:38:02;6.13;;;3.43;;
691;SDS011;70475;50.084;8.576;2024-03-06T06:40:31;4.50;;;3.80;;
691;SDS011;70475;50.084;8.576;2024-03-06T06:42:58;9.33;;;5.87;;
691;SDS011;70475;50.084;8.576;2024-03-06T06:45:26;6.93;;;3.63;;
691;SDS011;70475;50.084;8.576;2024-03-06T06:47:54;7.30;;;4.20;;
691;SDS011;70475;50.084;8.576;2024-03-06T06:50:22;7.10;;;4.13;;
691;SDS011;70475;50.084;8.576;2024-03-06T06:52:53;7.77;;;4.80;;
691;SDS011;70475;50.084;8.576;2024-03-06T06:55:21;9.47;;;5.77;;
691;SDS011;70475;50.084;8.576;2024-03-06T06:57:50;8.10;;;5.57;;
691;SDS011;70475;50.084;8.576;2024-03-06T07:00:18;6.70;;;4.07;;
691;SDS011;70475;50.084;8.576;2024-03-06T07:02:48;5.50;;;4.57;;
691;SDS011;70475;50.084;8.576;2024-03-06T07:05:16;7.90;;;6.23;;
691;SDS011;70475;50.084;8.576;2024-03-06T07:07:44;7.10;;;4.77;;
691;SDS011;70475;50.084;8.576;2024-03-06T07:10:16;5.80;;;3.97;;
691;SDS011;70475;50.084;8.576;2024-03-06T07:12:43;9.10;;;6.17;;
691;SDS011;70475;50.084;8.576;2024-03-06T07:15:11;12.70;;;6.90;;
691;SDS011;70475;50.084;8.576;2024-03-06T07:17:39;8.70;;;4.80;;
691;SDS011;70475;50.084;8.576;2024-03-06T07:20:07;10.80;;;5.50;;
691;SDS011;70475;50.084;8.576;2024-03-06T07:22:36;7.87;;;5.00;;
691;SDS011;70475;50.084;8.576;2024-03-06T07:25:04;7.17;;;5.70;;
691;SDS011;70475;50.084;8.576;2024-03-06T07:27:33;7.87;;;5.93;;
691;SDS011;70475;50.084;8.576;2024-03-06T07:30:01;8.43;;;6.60;;
691;SDS011;70475;50.084;8.576;2024-03-06T07:32:29;9.43;;;6.70;;
691;SDS011;70475;50.084;8.576;2024-03-06T07:34:56;7.67;;;6.33;;
691;SDS011;70475;50.084;8.576;2024-03-06T07:37:24;7.93;;;6.90;;
691;SDS011;70475;50.084;8.576;2024-03-06T07:39:52;7.23;;;5.73;;
691;SDS011;70475;50.084;8.576;2024-03-06T07:42:19;10.10;;;6.70;;
691;SDS011;70475;50.084;8.576;2024-03-06T07:44:49;9.30;;;7.47;;
691;SDS011;70475;50.084;8.576;2024-03-06T07:47:17;10.27;;;6.90;;
691;SDS011;70475;50.084;8.576;2024-03-06T07:49:44;8.00;;;5.77;;
691;SDS011;70475;50.084;8.576;2024-03-06T07:52:13;5.87;;;5.00;;
691;SDS011;70475;50.084;8.576;2024-03-06T07:54:40;7.67;;;5.57;;
691;SDS011;70475;50.084;8.576;2024-03-06T07:57:08;10.13;;;8.03;;
691;SDS011;70475;50.084;8.576;2024-03-06T07:59:36;9.63;;;6.60;;
691;SDS011;70475;50.084;8.576;2024-03-06T08:02:05;17.83;;;6.43;;
691;SDS011;70475;50.084;8.576;2024-03-06T08:04:32;12.57;;;7.53;;
691;SDS011;70475;50.084;8.576;2024-03-06T08:07:01;14.63;;;6.73;;
691;SDS011;70475;50.084;8.576;2024-03-06T08:09:29;12.23;;;8.50;;
691;SDS011;70475;50.084;8.576;2024-03-06T08:11:56;26.40;;;9.50;;
691;SDS011;70475;50.084;8.576;2024-03-06T08:14:24;10.03;;;8.07;;
691;SDS011;70475;50.084;8.576;2024-03-06T08:16:51;16.93;;;10.30;;
691;SDS011;70475;50.084;8.576;2024-03-06T08:19:21;13.70;;;9.10;;
691;SDS011;70475;50.084;8.576;2024-03-06T08:21:51;11.93;;;8.57;;
691;SDS011;70475;50.084;8.576;2024-03-06T08:24:18;14.37;;;9.27;;
691;SDS011;70475;50.084;8.576;2024-03-06T08:26:46;15.53;;;10.97;;
691;SDS011;70475;50.084;8.576;2024-03-06T08:29:14;14.80;;;10.10;;
691;SDS011;70475;50.084;8.576;2024-03-06T08:31:42;12.40;;;9.00;;
691;SDS011;70475;50.084;8.576;2024-03-06T08:34:09;12.33;;;9.00;;
691;SDS011;70475;50.084;8.576;2024-03-06T08:36:38;16.90;;;9.90;;
691;SDS011;70475;50.084;8.576;2024-03-06T08:39:06;13.70;;;9.90;;
691;SDS011;70475;50.084;8.576;2024-03-06T08:41:33;12.30;;;8.10;;
691;SDS011;70475;50.084;8.576;2024-03-06T08:44:01;16.27;;;9.20;;
691;SDS011;70475;50.084;8.576;2024-03-06T08:46:29;13.53;;;6.73;;
691;SDS011;70475;50.084;8.576;2024-03-06T08:48:57;12.23;;;7.60;;
691;SDS011;70475;50.084;8.576;2024-03-06T08:51:29;12.03;;;6.57;;
691;SDS011;70475;50.084;8.576;2024-03-06T08:53:57;11.37;;;7.20;;
691;SDS011;70475;50.084;8.576;2024-03-06T08:56:25;11.27;;;7.70;;
691;SDS011;70475;50.084;8.576;2024-03-06T08:58:53;11.73;;;7.47;;
691;SDS011;70475;50.084;8.576;2024-03-06T09:01:20;6.87;;;5.87;;
691;SDS011;70475;50.084;8.576;2024-03-06T09:03:48;14.40;;;7.47;;
691;SDS011;70475;50.084;8.576;2024-03-06T09:06:15;8.40;;;6.83;;
691;SDS011;70475;50.084;8.576;2024-03-06T09:08:43;7.97;;;6.27;;
691;SDS011;70475;50.084;8.576;2024-03-06T09:11:12;7.13;;;5.83;;
691;SDS011;70475;50.084;8.576;2024-03-06T09:13:40;8.20;;;6.03;;
691;SDS011;70475;50.084;8.576;2024-03-06T09:16:07;7.97;;;5.10;;
691;SDS011;70475;50.084;8.576;2024-03-06T09:18:35;8.83;;;5.43;;
691;SDS011;70475;50.084;8.576;2024-03-06T09:21:02;8.50;;;6.33;;
691;SDS011;70475;50.084;8.576;2024-03-06T09:23:30;10.50;;;6.13;;
691;SDS011;70475;50.084;8.576;2024-03-06T09:25:59;9.70;;;6.30;;
691;SDS011;70475;50.084;8.576;2024-03-06T09:28:28;10.20;;;6.53;;
691;SDS011;70475;50.084;8.576;2024-03-06T09:30:55;10.77;;;6.43;;
691;SDS011;70475;50.084;8.576;2024-03-06T09:33:23;7.70;;;5.53;;
691;SDS011;70475;50.084;8.576;2024-03-06T09:35:51;9.23;;;6.23;;
691;SDS011;70475;50.084;8.576;2024-03-06T09:38:18;11.43;;;7.23;;
691;SDS011;70475;50.084;8.576;2024-03-06T09:40:46;12.57;;;6.43;;
691;SDS011;70475;50.084;8.576;2024-03-06T09:43:15;14.70;;;8.67;;
691;SDS011;70475;50.084;8.576;2024-03-06T09:45:44;17.00;;;8.10;;
691;SDS011;70475;50.084;8.576;2024-03-06T09:48:15;12.53;;;7.30;;
691;SDS011;70475;50.084;8.576;2024-03-06T09:50:46;15.90;;;8.30;;
691;SDS011;70475;50.084;8.576;2024-03-06T09:53:16;6.80;;;5.03;;
691;SDS011;70475;50.084;8.576;2024-03-06T09:55:47;14.77;;;7.03;;
691;SDS011;70475;50.084;8.576;2024-03-06T09:58:16;9.90;;;6.10;;
691;SDS011;70475;50.084;8.576;2024-03-06T10:00:46;11.33;;;7.50;;
691;SDS011;70475;50.084;8.576;2024-03-06T10:03:16;24.67;;;8.80;;
691;SDS011;70475;50.084;8.576;2024-03-06T10:05:43;13.00;;;7.33;;
691;SDS011;70475;50.084;8.576;2024-03-06T10:08:11;13.07;;;6.37;;
691;SDS011;70475;50.084;8.576;2024-03-06T10:10:42;15.37;;;7.93;;
691;SDS011;70475;50.084;8.576;2024-03-06T10:13:15;14.87;;;7.93;;
691;SDS011;70475;50.084;8.576;2024-03-06T10:15:49;12.87;;;5.53;;
691;SDS011;70475;50.084;8.576;2024-03-06T10:18:23;12.43;;;7.13;;
691;SDS011;70475;50.084;8.576;2024-03-06T10:20:54;16.23;;;7.63;;
691;SDS011;70475;50.084;8.576;2024-03-06T10:23:22;9.70;;;7.03;;
691;SDS011;70475;50.084;8.576;2024-03-06T10:25:50;7.03;;;3.57;;
691;SDS011;70475;50.084;8.576;2024-03-06T10:28:20;18.80;;;7.50;;
691;SDS011;70475;50.084;8.576;2024-03-06T10:30:51;6.80;;;4.77;;
691;SDS011;70475;50.084;8.576;2024-03-06T10:33:19;15.33;;;6.70;;
691;SDS011;70475;50.084;8.576;2024-03-06T10:35:47;9.90;;;7.10;;
691;SDS011;70475;50.084;8.576;2024-03-06T10:38:16;16.50;;;5.80;;
691;SDS011;70475;50.084;8.576;2024-03-06T10:40:48;7.80;;;4.70;;
691;SDS011;70475;50.084;8.576;2024-03-06T10:43:17;11.10;;;6.23;;
691;SDS011;70475;50.084;8.576;2024-03-06T10:45:48;16.97;;;9.27;;
691;SDS011;70475;50.084;8.576;2024-03-06T10:48:20;12.97;;;7.00;;
691;SDS011;70475;50.084;8.576;2024-03-06T10:50:49;14.83;;;6.13;;
691;SDS011;70475;50.084;8.576;2024-03-06T10:53:17;9.70;;;4.40;;
691;SDS011;70475;50.084;8.576;2024-03-06T10:55:50;6.90;;;4.60;;
691;SDS011;70475;50.084;8.576;2024-03-06T10:58:19;6.37;;;4.43;;
691;SDS011;70475;50.084;8.576;2024-03-06T11:00:47;7.17;;;4.40;;
691;SDS011;70475;50.084;8.576;2024-03-06T11:03:15;3.67;;;2.77;;
691;SDS011;70475;50.084;8.576;2024-03-06T11:05:45;11.17;;;5.27;;
691;SDS011;70475;50.084;8.576;2024-03-06T11:08:14;8.77;;;5.27;;
691;SDS011;70475;50.084;8.576;2024-03-06T11:10:43;9.03;;;4.90;;
691;SDS011;70475;50.084;8.576;2024-03-06T11:13:21;5.63;;;3.73;;
691;SDS011;70475;50.084;8.576;2024-03-06T11:15:50;4.40;;;3.17;;
691;SDS011;70475;50.084;8.576;2024-03-06T11:21:29;5.90;;;3.77;;
691;SDS011;70475;50.084;8.576;2024-03-06T11:24:17;11.17;;;5.63;;
691;SDS011;70475;50.084;8.576;2024-03-06T11:26:47;4.80;;;3.00;;
691;SDS011;70475;50.084;8.576;2024-03-06T11:29:16;7.30;;;4.47;;
691;SDS011;70475;50.084;8.576;2024-03-06T11:32:01;7.27;;;3.80;;
691;SDS011;70475;50.084;8.576;2024-03-06T11:34:30;5.97;;;4.53;;
691;SDS011;70475;50.084;8.576;2024-03-06T11:36:59;9.43;;;5.27;;
691;SDS011;70475;50.084;8.576;2024-03-06T11:39:32;10.20;;;4.17;;
691;SDS011;70475;50.084;8.576;2024-03-06T11:42:03;10.80;;;6.17;;
691;SDS011;70475;50.084;8.576;2024-03-06T11:44:35;8.20;;;4.73;;
691;SDS011;70475;50.084;8.576;2024-03-06T11:47:04;10.93;;;5.30;;
691;SDS011;70475;50.084;8.576;2024-03-06T11:49:35;11.10;;;6.33;;
691;SDS011;70475;50.084;8.576;2024-03-06T11:52:06;10.27;;;5.30;;
691;SDS011;70475;50.084;8.576;2024-03-06T11:54:36;10.97;;;4.60;;
691;SDS011;70475;50.084;8.576;2024-03-06T11:57:04;14.07;;;7.03;;
691;SDS011;70475;50.084;8.576;2024-03-06T11:59:33;10.30;;;5.17;;
691;SDS011;70475;50.084;8.576;2024-03-06T12:02:02;12.53;;;6.90;;
691;SDS011;70475;50.084;8.576;2024-03-06T12:04:32;10.33;;;5.37;;
691;SDS011;70475;50.084;8.576;2024-03-06T12:07:01;10.17;;;5.30;;
691;SDS011;70475;50.084;8.576;2024-03-06T12:09:33;12.73;;;6.33;;
691;SDS011;70475;50.084;8.576;2024-03-06T12:12:07;11.73;;;6.20;;
691;SDS011;70475;50.084;8.576;2024-03-06T12:14:36;10.90;;;6.27;;
691;SDS011;70475;50.084;8.576;2024-03-06T12:17:05;11.17;;;6.10;;
691;SDS011;70475;50.084;8.576;2024-03-06T12:19:34;11.07;;;4.90;;
691;SDS011;70475;50.084;8.576;2024-03-06T12:22:02;6.53;;;3.27;;
691;SDS011;70475;50.084;8.576;2024-03-06T12:24:31;12.90;;;7.30;;
691;SDS011;70475;50.084;8.576;2024-03-06T12:27:00;14.57;;;7.20;;
691;SDS011;70475;50.084;8.576;2024-03-06T12:29:29;13.63;;;5.20;;
691;SDS011;70475;50.084;8.576;2024-03-06T12:31:59;2.67;;;2.43;;
691;SDS011;70475;50.084;8.576;2024-03-06T12:34:27;11.77;;;7.10;;
691;SDS011;70475;50.084;8.576;2024-03-06T12:36:56;10.50;;;5.93;;
691;SDS011;70475;50.084;8.576;2024-03-06T12:39:24;4.17;;;2.97;;
691;SDS011;70475;50.084;8.576;2024-03-06T12:41:52;11.63;;;6.13;;
691;SDS011;70475;50.084;8.576;2024-03-06T12:44:20;11.17;;;5.60;;
691;SDS011;70475;50.084;8.576;2024-03-06T12:46:48;9.60;;;5.67;;
691;SDS011;70475;50.084;8.576;2024-03-06T12:49:16;9.27;;;6.73;;
691;SDS011;70475;50.084;8.576;2024-03-06T12:51:44;10.33;;;5.77;;
691;SDS011;70475;50.084;8.576;2024-03-06T12:54:12;10.20;;;5.70;;
691;SDS011;70475;50.084;8.576;2024-03-06T12:56:39;7.20;;;4.43;;
691;SDS011;70475;50.084;8.576;2024-03-06T12:59:09;12.60;;;5.70;;
691;SDS011;70475;50.084;8.576;2024-03-06T13:01:37;10.07;;;5.20;;
691;SDS011;70475;50.084;8.576;2024-03-06T13:04:03;6.00;;;3.63;;
691;SDS011;70475;50.084;8.576;2024-03-06T13:06:33;9.00;;;4.90;;
691;SDS011;70475;50.084;8.576;2024-03-06T13:09:01;8.00;;;5.37;;
691;SDS011;70475;50.084;8.576;2024-03-06T13:11:28;23.20;;;5.80;;
691;SDS011;70475;50.084;8.576;2024-03-06T13:13:56;4.10;;;3.23;;
691;SDS011;70475;50.084;8.576;2024-03-06T13:16:25;8.43;;;4.30;;
691;SDS011;70475;50.084;8.576;2024-03-06T13:18:53;11.40;;;5.87;;
691;SDS011;70475;50.084;8.576;2024-03-06T13:21:23;13.80;;;6.23;;
691;SDS011;70475;50.084;8.576;2024-03-06T13:23:50;15.03;;;8.13;;
691;SDS011;70475;50.084;8.576;2024-03-06T13:26:18;10.27;;;8.00;;
691;SDS011;70475;50.084;8.576;2024-03-06T13:28:47;10.90;;;6.40;;
691;SDS011;70475;50.084;8.576;2024-03-06T13:31:15;12.07;;;5.57;;
691;SDS011;70475;50.084;8.576;2024-03-06T13:33:43;14.73;;;6.97;;
691;SDS011;70475;50.084;8.576;2024-03-06T13:36:11;9.60;;;5.97;;
691;SDS011;70475;50.084;8.576;2024-03-06T13:38:39;11.30;;;5.20;;
691;SDS011;70475;50.084;8.576;2024-03-06T13:41:08;12.83;;;5.87;;
691;SDS011;70475;50.084;8.576;2024-03-06T13:43:36;12.30;;;5.90;;
691;SDS011;70475;50.084;8.576;2024-03-06T13:46:04;10.53;;;4.30;;
691;SDS011;70475;50.084;8.576;2024-03-06T13:48:32;9.43;;;4.27;;
691;SDS011;70475;50.084;8.576;2024-03-06T13:51:01;6.53;;;3.40;;
691;SDS011;70475;50.084;8.576;2024-03-06T13:53:29;6.83;;;4.80;;
691;SDS011;70475;50.084;8.576;2024-03-06T13:55:57;6.70;;;4.27;;
691;SDS011;70475;50.084;8.576;2024-03-06T13:58:24;9.93;;;4.57;;
691;SDS011;70475;50.084;8.576;2024-03-06T14:00:52;10.00;;;6.37;;
691;SDS011;70475;50.084;8.576;2024-03-06T14:03:20;10.80;;;5.53;;
691;SDS011;70475;50.084;8.576;2024-03-06T14:05:48;7.70;;;4.70;;
691;SDS011;70475;50.084;8.576;2024-03-06T14:08:17;10.03;;;4.37;;
691;SDS011;70475;50.084;8.576;2024-03-06T14:10:45;8.87;;;5.13;;
691;SDS011;70475;50.084;8.576;2024-03-06T14:13:13;8.47;;;4.87;;
691;SDS011;70475;50.084;8.576;2024-03-06T14:15:40;15.10;;;5.93;;
691;SDS011;70475;50.084;8.576;2024-03-06T14:18:08;12.50;;;6.37;;
691;SDS011;70475;50.084;8.576;2024-03-06T14:20:36;8.77;;;4.03;;
691;SDS011;70475;50.084;8.576;2024-03-06T14:23:09;7.20;;;3.40;;
691;SDS011;70475;50.084;8.576;2024-03-06T14:25:38;7.87;;;4.20;;
691;SDS011;70475;50.084;8.576;2024-03-06T14:28:06;8.57;;;4.80;;
691;SDS011;70475;50.084;8.576;2024-03-06T14:30:34;8.87;;;4.40;;
691;SDS011;70475;50.084;8.576;2024-03-06T14:33:03;8.10;;;4.63;;
691;SDS011;70475;50.084;8.576;2024-03-06T14:35:32;9.03;;;4.93;;
691;SDS011;70475;50.084;8.576;2024-03-06T14:37:59;10.90;;;4.07;;
691;SDS011;70475;50.084;8.576;2024-03-06T14:40:28;6.43;;;4.43;;
691;SDS011;70475;50.084;8.576;2024-03-06T14:42:58;7.60;;;3.97;;
691;SDS011;70475;50.084;8.576;2024-03-06T14:45:25;8.50;;;4.50;;
691;SDS011;70475;50.084;8.576;2024-03-06T14:47:53;5.10;;;3.40;;
691;SDS011;70475;50.084;8.576;2024-03-06T14:50:21;4.40;;;3.77;;
691;SDS011;70475;50.084;8.576;2024-03-06T14:52:49;6.93;;;4.30;;
691;SDS011;70475;50.084;8.576;2024-03-06T14:55:16;6.23;;;3.90;;
691;SDS011;70475;50.084;8.576;2024-03-06T14:57:46;10.40;;;4.47;;
691;SDS011;70475;50.084;8.576;2024-03-06T15:00:15;9.20;;;5.00;;
691;SDS011;70475;50.084;8.576;2024-03-06T15:02:44;5.03;;;3.80;;
691;SDS011;70475;50.084;8.576;2024-03-06T15:05:11;4.40;;;2.13;;
691;SDS011;70475;50.084;8.576;2024-03-06T15:07:39;7.90;;;3.10;;
691;SDS011;70475;50.084;8.576;2024-03-06T15:10:07;7.77;;;4.10;;
691;SDS011;70475;50.084;8.576;2024-03-06T15:12:35;9.67;;;4.87;;
691;SDS011;70475;50.084;8.576;2024-03-06T15:15:04;8.60;;;5.17;;
691;SDS011;70475;50.084;8.576;2024-03-06T15:17:34;8.70;;;6.33;;
691;SDS011;70475;50.084;8.576;2024-03-06T15:20:05;8.87;;;4.57;;
691;SDS011;70475;50.084;8.576;2024-03-06T15:22:35;7.70;;;4.93;;
691;SDS011;70475;50.084;8.576;2024-03-06T15:25:07;9.83;;;5.10;;
691;SDS011;70475;50.084;8.576;2024-03-06T15:27:36;10.43;;;5.60;;